createdAt,value
2018-01-26T00:02:01.745Z,7.60
2018-01-26T00:04:29.154Z,6.33
2018-01-26T00:06:56.543Z,5.50
2018-01-26T00:09:23.965Z,6.80
2018-01-26T00:11:51.354Z,6.17
2018-01-26T00:14:18.758Z,6.00
2018-01-26T00:16:46.135Z,6.77
2018-01-26T00:19:13.558Z,6.13
2018-01-26T00:21:40.950Z,6.43
2018-01-26T00:24:08.346Z,6.87
2018-01-26T00:26:35.734Z,5.73
2018-01-26T00:29:03.131Z,6.37
2018-01-26T00:31:30.521Z,6.30
2018-01-26T00:33:57.926Z,7.17
2018-01-26T00:36:25.408Z,6.50
2018-01-26T00:38:52.857Z,7.13
2018-01-26T00:41:20.255Z,6.67
2018-01-26T00:43:47.647Z,6.70
2018-01-26T00:46:15.044Z,7.27
2018-01-26T00:48:42.443Z,6.63
2018-01-26T00:51:10.082Z,7.20
2018-01-26T00:53:37.544Z,6.20
2018-01-26T00:56:04.957Z,7.30
2018-01-26T00:58:32.361Z,7.87
2018-01-26T01:00:59.769Z,7.27
2018-01-26T01:03:27.226Z,8.17
2018-01-26T01:05:54.627Z,7.47
2018-01-26T01:08:22.021Z,7.20
2018-01-26T01:10:49.522Z,8.10
2018-01-26T01:13:16.921Z,8.10
2018-01-26T01:15:44.340Z,7.60
2018-01-26T01:18:11.715Z,8.17
2018-01-26T01:20:39.112Z,8.43
2018-01-26T01:23:06.498Z,8.23
2018-01-26T01:25:33.909Z,8.83
2018-01-26T01:28:01.318Z,8.60
2018-01-26T01:30:28.761Z,8.10
2018-01-26T01:32:56.156Z,8.17
2018-01-26T01:35:23.542Z,8.37
2018-01-26T01:37:50.940Z,9.00
2018-01-26T01:40:18.341Z,9.90
2018-01-26T01:42:45.842Z,9.23
2018-01-26T01:45:14.158Z,9.43
2018-01-26T01:47:41.567Z,9.53
2018-01-26T01:50:08.965Z,9.60
2018-01-26T01:52:36.354Z,9.23
2018-01-26T01:55:03.739Z,9.93
2018-01-26T01:57:31.194Z,10.30
2018-01-26T01:59:58.603Z,9.90
2018-01-26T02:02:26.006Z,10.50
2018-01-26T02:04:53.406Z,10.80
2018-01-26T02:07:20.816Z,9.23
2018-01-26T02:09:48.220Z,11.77
2018-01-26T02:12:15.654Z,11.63
2018-01-26T02:14:43.071Z,9.97
2018-01-26T02:17:10.486Z,11.40
2018-01-26T02:19:37.897Z,12.30
2018-01-26T02:22:05.310Z,10.00
2018-01-26T02:24:50.222Z,11.03
2018-01-26T02:27:17.622Z,12.03
2018-01-26T02:29:45.027Z,11.33
2018-01-26T02:32:12.446Z,13.20
2018-01-26T02:34:39.855Z,12.50
2018-01-26T02:37:07.264Z,13.63
2018-01-26T02:39:34.662Z,12.60
2018-01-26T02:42:02.109Z,11.63
2018-01-26T02:44:29.540Z,12.17
2018-01-26T02:46:56.948Z,13.00
2018-01-26T02:49:24.373Z,13.37
2018-01-26T02:51:51.742Z,12.77
2018-01-26T02:54:19.174Z,12.73
2018-01-26T02:56:46.583Z,14.00
2018-01-26T02:59:13.972Z,13.93
2018-01-26T03:01:41.375Z,14.70
2018-01-26T03:04:08.810Z,13.50
2018-01-26T03:06:36.194Z,13.97
2018-01-26T03:09:03.602Z,15.07
2018-01-26T03:11:31.012Z,15.83
2018-01-26T03:13:58.417Z,15.50
2018-01-26T03:16:25.803Z,16.93
2018-01-26T03:18:53.245Z,15.80
2018-01-26T03:21:20.644Z,17.53
2018-01-26T03:23:48.058Z,18.23
2018-01-26T03:26:15.454Z,17.40
2018-01-26T03:28:42.877Z,17.30
2018-01-26T03:31:10.262Z,18.53
2018-01-26T03:33:37.666Z,16.67
2018-01-26T03:36:05.082Z,18.83
2018-01-26T03:38:32.477Z,17.03
2018-01-26T03:40:59.882Z,17.73
2018-01-26T03:43:27.389Z,18.87
2018-01-26T03:45:54.783Z,18.37
2018-01-26T03:48:22.210Z,17.40
2018-01-26T03:50:49.614Z,19.30
2018-01-26T03:53:17.001Z,18.57
2018-01-26T03:55:44.409Z,18.77
2018-01-26T03:58:11.799Z,21.87
2018-01-26T04:00:39.214Z,21.43
2018-01-26T04:03:06.614Z,20.70
2018-01-26T04:05:34.022Z,20.60
2018-01-26T04:08:01.448Z,20.77
2018-01-26T04:10:28.842Z,19.83
2018-01-26T04:12:56.239Z,20.77
2018-01-26T04:15:23.635Z,18.60
2018-01-26T04:17:51.069Z,20.40
2018-01-26T04:20:18.487Z,19.37
2018-01-26T04:22:45.892Z,22.13
2018-01-26T04:25:13.284Z,20.23
2018-01-26T04:27:40.682Z,20.43
2018-01-26T04:30:08.074Z,20.90
2018-01-26T04:32:35.473Z,20.70
2018-01-26T04:35:02.980Z,23.40
2018-01-26T04:37:30.411Z,22.60
2018-01-26T04:39:57.805Z,23.87
2018-01-26T04:42:25.626Z,23.00
2018-01-26T04:44:53.023Z,21.60
2018-01-26T04:47:20.434Z,21.93
2018-01-26T04:49:47.895Z,22.97
2018-01-26T04:52:15.351Z,23.03
2018-01-26T04:54:42.694Z,24.63
2018-01-26T04:57:10.089Z,22.77
2018-01-26T04:59:37.507Z,22.20
2018-01-26T05:02:04.904Z,23.40
2018-01-26T05:04:32.333Z,22.50
2018-01-26T05:06:59.730Z,24.27
2018-01-26T05:09:27.130Z,21.50
2018-01-26T05:11:54.554Z,22.10
2018-01-26T05:14:21.969Z,22.47
2018-01-26T05:16:49.376Z,22.90
2018-01-26T05:19:16.821Z,22.47
2018-01-26T05:21:44.210Z,22.37
2018-01-26T05:24:11.629Z,22.87
2018-01-26T05:26:39.038Z,19.70
2018-01-26T05:29:06.551Z,21.70
2018-01-26T05:31:33.947Z,22.23
2018-01-26T05:34:01.345Z,21.50
2018-01-26T05:36:28.738Z,22.70
2018-01-26T05:38:56.152Z,23.40
2018-01-26T05:41:23.558Z,24.60
2018-01-26T05:43:50.990Z,23.73
2018-01-26T05:46:18.382Z,25.17
2018-01-26T05:48:45.796Z,25.40
2018-01-26T05:51:13.184Z,27.80
2018-01-26T05:53:40.581Z,25.00
2018-01-26T05:56:07.998Z,25.47
2018-01-26T05:58:35.489Z,30.20
2018-01-26T06:01:02.895Z,28.00
2018-01-26T06:03:30.293Z,28.70
2018-01-26T06:05:57.689Z,29.37
2018-01-26T06:08:25.082Z,26.97
2018-01-26T06:10:52.487Z,27.10
2018-01-26T06:13:19.878Z,27.03
2018-01-26T06:15:47.282Z,24.37
2018-01-26T06:18:14.694Z,25.23
2018-01-26T06:20:42.222Z,28.60
2018-01-26T06:23:09.621Z,25.13
2018-01-26T06:25:37.022Z,26.10
2018-01-26T06:28:04.418Z,26.70
2018-01-26T06:30:32.678Z,27.20
2018-01-26T06:33:00.084Z,26.30
2018-01-26T06:35:27.510Z,25.23
2018-01-26T06:37:54.238Z,25.30
2018-01-26T06:40:21.655Z,26.60
2018-01-26T06:42:49.067Z,23.27
2018-01-26T06:45:16.478Z,24.27
2018-01-26T06:47:43.945Z,25.10
2018-01-26T06:50:11.391Z,23.80
2018-01-26T06:52:38.798Z,24.10
2018-01-26T06:55:06.190Z,25.30
2018-01-26T06:57:33.594Z,25.33
2018-01-26T07:00:01.011Z,24.47
2018-01-26T07:02:28.414Z,26.30
2018-01-26T07:04:55.809Z,28.37
2018-01-26T07:07:23.211Z,26.17
2018-01-26T07:09:50.622Z,25.47
2018-01-26T07:12:18.026Z,28.37
2018-01-26T07:14:45.422Z,26.00
2018-01-26T07:17:12.826Z,26.77
2018-01-26T07:19:40.233Z,28.47
2018-01-26T07:22:07.634Z,32.60
2018-01-26T07:24:35.022Z,26.73
2018-01-26T07:27:02.451Z,28.50
2018-01-26T07:29:29.846Z,22.83
2018-01-26T07:31:57.321Z,24.60
2018-01-26T07:34:24.717Z,26.67
2018-01-26T07:36:52.115Z,28.33
2018-01-26T07:39:19.593Z,29.33
2018-01-26T07:41:46.985Z,33.30
2018-01-26T07:44:14.387Z,29.73
2018-01-26T07:46:41.791Z,27.20
2018-01-26T07:49:09.199Z,27.37
2018-01-26T07:51:36.603Z,27.47
2018-01-26T07:54:04.020Z,28.07
2018-01-26T07:56:31.414Z,27.83
2018-01-26T07:58:58.822Z,26.97
2018-01-26T08:01:26.227Z,35.80
2018-01-26T08:03:53.666Z,35.67
2018-01-26T08:06:21.062Z,40.53
2018-01-26T08:08:48.513Z,54.80
2018-01-26T08:11:15.906Z,48.10
2018-01-26T08:13:43.323Z,45.30
2018-01-26T08:16:10.714Z,40.53
2018-01-26T08:18:38.152Z,42.70
2018-01-26T08:21:05.635Z,46.77
2018-01-26T08:23:33.065Z,39.90
2018-01-26T08:26:00.462Z,45.80
2018-01-26T08:28:27.867Z,49.93
2018-01-26T08:30:55.283Z,49.13
2018-01-26T08:33:22.686Z,55.37
2018-01-26T08:35:50.614Z,45.57
2018-01-26T08:38:18.030Z,39.97
2018-01-26T08:40:45.425Z,42.13
2018-01-26T08:43:12.845Z,40.90
2018-01-26T08:45:40.240Z,33.40
2018-01-26T08:48:07.650Z,36.80
2018-01-26T08:50:35.060Z,32.57
2018-01-26T08:53:02.458Z,33.17
2018-01-26T08:55:32.334Z,31.70
2018-01-26T08:57:59.741Z,32.93
2018-01-26T09:00:27.170Z,30.27
2018-01-26T09:02:54.562Z,32.03
2018-01-26T09:05:21.978Z,34.53
2018-01-26T09:07:49.383Z,33.57
2018-01-26T09:10:16.782Z,34.00
2018-01-26T09:12:44.174Z,34.77
2018-01-26T09:15:11.589Z,35.40
2018-01-26T09:17:38.983Z,33.13
2018-01-26T09:20:06.400Z,35.70
2018-01-26T09:22:33.804Z,29.90
2018-01-26T09:25:01.191Z,32.23
2018-01-26T09:27:28.622Z,32.83
2018-01-26T09:29:55.998Z,32.40
2018-01-26T09:32:23.407Z,32.70
2018-01-26T09:34:50.818Z,33.37
2018-01-26T09:37:18.231Z,35.20
2018-01-26T09:39:46.601Z,38.03
2018-01-26T09:42:14.007Z,39.80
2018-01-26T09:44:41.407Z,38.37
2018-01-26T09:47:08.987Z,37.83
2018-01-26T09:49:36.374Z,39.37
2018-01-26T09:52:03.847Z,35.57
2018-01-26T09:54:31.242Z,39.57
2018-01-26T09:56:58.664Z,40.63
2018-01-26T09:59:26.167Z,41.57
2018-01-26T10:01:53.610Z,43.83
2018-01-26T10:04:21.020Z,42.70
2018-01-26T10:06:48.421Z,41.70
2018-01-26T10:09:15.819Z,42.07
2018-01-26T10:11:43.339Z,44.20
2018-01-26T10:14:10.800Z,43.07
2018-01-26T10:16:38.178Z,45.17
2018-01-26T10:19:05.589Z,43.60
2018-01-26T10:21:33.054Z,40.30
2018-01-26T10:24:00.510Z,38.47
2018-01-26T10:26:27.911Z,39.53
2018-01-26T10:28:55.305Z,39.57
2018-01-26T10:31:23.230Z,38.55
2018-01-26T10:33:50.630Z,39.63
2018-01-26T10:36:18.026Z,39.77
2018-01-26T10:38:45.461Z,38.13
2018-01-26T10:41:12.839Z,36.97
2018-01-26T10:43:40.286Z,40.37
2018-01-26T10:46:07.726Z,37.90
2018-01-26T10:48:35.150Z,39.80
2018-01-26T10:51:02.550Z,38.53
2018-01-26T10:53:29.966Z,41.90
2018-01-26T10:55:57.469Z,40.40
2018-01-26T10:58:24.875Z,44.63
2018-01-26T11:00:52.269Z,45.23
2018-01-26T11:03:19.697Z,45.77
2018-01-26T11:05:47.107Z,47.03
2018-01-26T11:08:14.526Z,39.10
2018-01-26T11:10:41.932Z,36.23
2018-01-26T11:13:09.327Z,35.00
2018-01-26T11:15:36.731Z,39.63
2018-01-26T11:18:04.126Z,36.43
2018-01-26T11:20:31.627Z,38.20
2018-01-26T11:22:59.039Z,35.87
2018-01-26T11:25:26.454Z,39.83
2018-01-26T11:27:53.854Z,38.93
2018-01-26T11:30:21.291Z,37.97
2018-01-26T11:32:48.691Z,37.10
2018-01-26T11:35:16.087Z,39.00
2018-01-26T11:37:43.487Z,35.80
2018-01-26T11:40:10.959Z,36.80
2018-01-26T11:42:38.360Z,33.73
2018-01-26T11:45:05.759Z,36.10
2018-01-26T11:47:33.215Z,35.83
2018-01-26T11:50:00.627Z,31.83
2018-01-26T11:52:28.014Z,34.40
2018-01-26T11:54:55.484Z,30.53
2018-01-26T11:57:22.913Z,33.10
2018-01-26T11:59:50.294Z,32.63
2018-01-26T12:02:17.718Z,34.50
2018-01-26T12:04:45.132Z,33.10
2018-01-26T12:07:12.553Z,33.77
2018-01-26T12:09:39.949Z,32.27
2018-01-26T12:12:07.358Z,31.73
2018-01-26T12:14:34.753Z,34.00
2018-01-26T12:17:02.166Z,34.20
2018-01-26T12:19:29.566Z,32.90
2018-01-26T12:21:56.976Z,33.13
2018-01-26T12:24:24.372Z,34.93
2018-01-26T12:26:51.829Z,34.60
2018-01-26T12:29:19.293Z,33.13
2018-01-26T12:31:46.666Z,33.00
2018-01-26T12:34:14.099Z,31.50
2018-01-26T12:36:41.598Z,32.37
2018-01-26T12:39:08.911Z,32.23
2018-01-26T12:41:36.306Z,30.80
2018-01-26T12:44:03.716Z,34.80
2018-01-26T12:46:31.101Z,34.87
2018-01-26T12:48:58.570Z,37.90
2018-01-26T12:51:25.966Z,34.07
2018-01-26T12:53:53.373Z,32.77
2018-01-26T12:56:20.779Z,31.83
2018-01-26T12:58:48.179Z,35.13
2018-01-26T13:01:15.658Z,32.90
2018-01-26T13:03:44.011Z,33.80
2018-01-26T13:06:11.852Z,33.10
2018-01-26T13:08:39.259Z,33.50
2018-01-26T13:11:06.656Z,34.43
2018-01-26T13:13:34.079Z,33.80
2018-01-26T13:16:01.454Z,34.30
2018-01-26T13:18:28.906Z,33.40
2018-01-26T13:20:56.361Z,33.63
2018-01-26T13:23:23.771Z,32.80
2018-01-26T13:25:51.162Z,32.60
2018-01-26T13:28:18.634Z,32.10
2018-01-26T13:30:46.071Z,31.90
2018-01-26T13:33:13.484Z,34.90
2018-01-26T13:35:40.876Z,35.70
2018-01-26T13:38:08.286Z,35.80
2018-01-26T13:40:35.709Z,35.10
2018-01-26T13:43:03.133Z,32.03
2018-01-26T13:45:30.562Z,37.20
2018-01-26T13:47:58.041Z,36.13
2018-01-26T13:50:25.426Z,34.33
2018-01-26T13:52:52.863Z,36.23
2018-01-26T13:55:20.275Z,36.13
2018-01-26T13:57:47.670Z,32.73
2018-01-26T14:00:15.091Z,33.90
2018-01-26T14:02:42.514Z,33.50
2018-01-26T14:05:09.922Z,31.00
2018-01-26T14:07:37.319Z,32.70
2018-01-26T14:10:04.722Z,32.20
2018-01-26T14:12:32.203Z,31.90
2018-01-26T14:14:59.605Z,34.50
2018-01-26T14:17:27.018Z,31.80
2018-01-26T14:19:54.421Z,32.27
2018-01-26T14:22:21.933Z,32.63
2018-01-26T14:24:49.346Z,34.27
2018-01-26T14:27:16.746Z,32.53
2018-01-26T14:29:44.150Z,30.20
2018-01-26T14:32:11.559Z,33.70
2018-01-26T14:34:38.957Z,31.63
2018-01-26T14:37:06.358Z,30.50
2018-01-26T14:39:33.790Z,31.30
2018-01-26T14:42:01.185Z,32.60
2018-01-26T14:44:28.615Z,31.33
2018-01-26T14:46:56.135Z,32.20
2018-01-26T14:49:23.523Z,31.43
2018-01-26T14:51:50.940Z,31.47
2018-01-26T14:54:18.333Z,32.77
2018-01-26T14:56:45.746Z,33.00
2018-01-26T14:59:13.202Z,30.03
2018-01-26T15:01:40.606Z,30.17
2018-01-26T15:04:08.039Z,28.60
2018-01-26T15:06:35.457Z,29.07
2018-01-26T15:09:02.855Z,28.70
2018-01-26T15:11:30.263Z,28.43
2018-01-26T15:13:57.658Z,29.00
2018-01-26T15:16:25.063Z,27.53
2018-01-26T15:18:52.458Z,28.70
2018-01-26T15:21:19.850Z,28.77
2018-01-26T15:23:47.282Z,32.37
2018-01-26T15:26:14.746Z,30.33
2018-01-26T15:28:42.149Z,29.50
2018-01-26T15:31:09.631Z,29.77
2018-01-26T15:33:37.036Z,33.17
2018-01-26T15:36:04.427Z,29.17
2018-01-26T15:38:31.839Z,30.80
2018-01-26T15:40:59.235Z,29.73
2018-01-26T15:43:26.634Z,29.67
2018-01-26T15:45:54.071Z,29.13
2018-01-26T15:48:21.432Z,29.53
2018-01-26T15:50:48.849Z,29.40
2018-01-26T15:53:16.296Z,28.33
2018-01-26T15:55:43.672Z,26.67
2018-01-26T15:58:11.134Z,27.70
2018-01-26T16:00:38.531Z,30.00
2018-01-26T16:03:05.933Z,28.57
2018-01-26T16:05:33.338Z,28.90
2018-01-26T16:08:00.752Z,31.20
2018-01-26T16:10:28.142Z,34.00
2018-01-26T16:12:55.574Z,35.20
2018-01-26T16:15:22.967Z,30.10
2018-01-26T16:17:50.370Z,28.40
2018-01-26T16:20:17.826Z,28.50
2018-01-26T16:22:45.222Z,26.40
2018-01-26T16:25:12.622Z,26.57
2018-01-26T16:27:40.031Z,26.27
2018-01-26T16:30:07.452Z,30.83
2018-01-26T16:32:34.862Z,28.77
2018-01-26T16:35:02.262Z,26.53
2018-01-26T16:37:29.678Z,25.20
2018-01-26T16:39:57.081Z,25.07
2018-01-26T16:42:24.467Z,31.07
2018-01-26T16:44:51.875Z,29.30
2018-01-26T16:47:19.287Z,31.30
2018-01-26T16:49:46.715Z,29.63
2018-01-26T16:52:14.206Z,30.63
2018-01-26T16:54:41.634Z,26.83
2018-01-26T16:57:09.009Z,26.40
2018-01-26T16:59:36.436Z,31.23
2018-01-26T17:02:03.841Z,26.30
2018-01-26T17:04:31.234Z,25.43
2018-01-26T17:06:58.756Z,26.93
2018-01-26T17:09:26.198Z,28.07
2018-01-26T17:11:53.590Z,26.30
2018-01-26T17:14:20.995Z,26.90
2018-01-26T17:16:48.417Z,25.90
2018-01-26T17:19:15.805Z,28.63
2018-01-26T17:21:43.232Z,27.20
2018-01-26T17:24:10.625Z,30.47
2018-01-26T17:26:38.018Z,26.67
2018-01-26T17:29:05.426Z,26.60
2018-01-26T17:31:32.817Z,28.23
2018-01-26T17:34:00.222Z,27.80
2018-01-26T17:36:27.622Z,27.57
2018-01-26T17:38:55.063Z,29.20
2018-01-26T17:41:22.443Z,28.30
2018-01-26T17:43:49.871Z,29.73
2018-01-26T17:46:17.271Z,30.63
2018-01-26T17:48:44.661Z,27.40
2018-01-26T17:51:12.063Z,30.10
2018-01-26T17:53:39.465Z,29.90
2018-01-26T17:56:06.885Z,31.20
2018-01-26T17:58:34.283Z,29.30
2018-01-26T18:01:01.681Z,29.10
2018-01-26T18:03:29.095Z,28.87
2018-01-26T18:05:56.494Z,29.83
2018-01-26T18:08:23.883Z,31.67
2018-01-26T18:10:51.282Z,33.60
2018-01-26T18:13:24.658Z,40.90
2018-01-26T18:15:52.072Z,38.93
2018-01-26T18:18:19.551Z,38.80
2018-01-26T18:20:47.982Z,40.83
2018-01-26T18:23:15.379Z,34.57
2018-01-26T18:25:42.767Z,28.53
2018-01-26T18:28:10.171Z,27.10
2018-01-26T18:30:37.571Z,25.63
2018-01-26T18:33:04.970Z,23.47
2018-01-26T18:35:32.366Z,29.57
2018-01-26T18:37:59.801Z,29.17
2018-01-26T18:40:27.195Z,30.60
2018-01-26T18:42:54.602Z,32.00
2018-01-26T18:45:21.997Z,34.20
2018-01-26T18:47:49.402Z,34.40
2018-01-26T18:50:16.796Z,40.10
2018-01-26T18:52:44.199Z,39.70
2018-01-26T18:55:11.620Z,39.43
2018-01-26T18:57:39.016Z,33.80
2018-01-26T19:00:06.486Z,36.20
2018-01-26T19:02:33.908Z,34.63
2018-01-26T19:05:01.307Z,33.23
2018-01-26T19:07:28.718Z,35.97
2018-01-26T19:09:56.127Z,39.83
2018-01-26T19:12:23.539Z,43.33
2018-01-26T19:14:50.999Z,33.57
2018-01-26T19:17:18.410Z,31.77
2018-01-26T19:19:45.806Z,28.60
2018-01-26T19:22:13.267Z,28.33
2018-01-26T19:24:40.690Z,27.87
2018-01-26T19:27:08.116Z,39.20
2018-01-26T19:29:35.562Z,32.43
2018-01-26T19:32:03.069Z,38.40
2018-01-26T19:34:30.466Z,35.67
2018-01-26T19:36:57.859Z,37.50
2018-01-26T19:39:25.288Z,33.57
2018-01-26T19:41:52.690Z,30.70
2018-01-26T19:44:20.137Z,107.10
2018-01-26T19:46:47.716Z,79.20
2018-01-26T19:49:15.143Z,133.93
2018-01-26T19:51:42.527Z,75.97
2018-01-26T19:54:09.931Z,72.93
2018-01-26T19:56:37.330Z,54.93
2018-01-26T19:59:04.734Z,44.97
2018-01-26T20:01:32.186Z,37.67
2018-01-26T20:04:05.492Z,30.47
2018-01-26T20:06:50.346Z,29.30
2018-01-26T20:09:23.349Z,29.77
2018-01-26T20:11:56.355Z,29.47
2018-01-26T20:14:23.786Z,34.47
2018-01-26T20:16:51.201Z,34.77
2018-01-26T20:19:18.606Z,30.20
2018-01-26T20:21:46.007Z,28.67
2018-01-26T20:24:13.419Z,25.30
2018-01-26T20:26:40.890Z,56.70
2018-01-26T20:29:08.294Z,29.07
2018-01-26T20:31:35.697Z,26.60
2018-01-26T20:34:03.225Z,36.20
2018-01-26T20:36:30.664Z,33.67
2018-01-26T20:38:58.063Z,27.20
2018-01-26T20:41:25.537Z,34.37
2018-01-26T20:43:52.926Z,27.07
2018-01-26T20:46:20.323Z,26.47
2018-01-26T20:48:47.735Z,30.07
2018-01-26T20:51:15.163Z,45.03
2018-01-26T20:53:42.592Z,50.70
2018-01-26T20:56:09.966Z,28.57
2018-01-26T20:58:37.383Z,26.90
2018-01-26T21:01:04.922Z,32.57
2018-01-26T21:03:32.347Z,44.03
2018-01-26T21:05:59.758Z,31.57
2018-01-26T21:08:27.142Z,40.90
2018-01-26T21:13:34.550Z,27.53
2018-01-26T21:16:01.974Z,23.90
2018-01-26T21:18:29.377Z,28.00
2018-01-26T21:20:56.782Z,30.20
2018-01-26T21:23:24.179Z,26.10
2018-01-26T21:25:51.588Z,27.20
2018-01-26T21:28:19.003Z,24.00
2018-01-26T21:30:46.432Z,25.70
2018-01-26T21:33:13.847Z,26.57
2018-01-26T21:35:41.270Z,26.20
2018-01-26T21:38:08.778Z,26.63
2018-01-26T21:40:36.189Z,24.40
2018-01-26T21:43:03.582Z,26.53
2018-01-26T21:45:30.978Z,25.80
2018-01-26T21:47:58.378Z,25.37
2018-01-26T21:50:25.791Z,28.20
2018-01-26T21:52:53.195Z,26.77
2018-01-26T21:55:20.586Z,28.93
2018-01-26T21:57:48.085Z,27.77
2018-01-26T22:00:15.490Z,29.77
2018-01-26T22:02:42.886Z,29.07
2018-01-26T22:05:16.120Z,27.70
2018-01-26T22:07:43.526Z,29.63
2018-01-26T22:10:10.923Z,28.80
2018-01-26T22:12:38.322Z,26.93
2018-01-26T22:15:05.719Z,24.70
2018-01-26T22:17:33.120Z,23.93
2018-01-26T22:20:00.505Z,23.50
2018-01-26T22:22:27.917Z,24.27
2018-01-26T22:24:55.314Z,23.97
2018-01-26T22:27:22.711Z,23.37
2018-01-26T22:29:50.140Z,23.00
2018-01-26T22:32:18.426Z,23.70
2018-01-26T22:34:45.820Z,23.97
2018-01-26T22:37:13.230Z,23.40
2018-01-26T22:39:40.718Z,25.10
2018-01-26T22:42:08.126Z,28.63
2018-01-26T22:44:35.506Z,24.70
2018-01-26T22:47:02.991Z,24.90
2018-01-26T22:49:30.374Z,24.63
2018-01-26T22:51:57.786Z,25.07
2018-01-26T22:54:25.178Z,24.23
2018-01-26T22:56:52.601Z,25.83
2018-01-26T22:59:20.010Z,25.57
2018-01-26T23:01:47.402Z,24.60
2018-01-26T23:04:14.810Z,25.73
2018-01-26T23:06:42.214Z,26.33
2018-01-26T23:09:09.633Z,24.73
2018-01-26T23:11:37.017Z,24.87
2018-01-26T23:14:04.425Z,24.43
2018-01-26T23:16:31.819Z,25.53
2018-01-26T23:18:59.234Z,26.43
2018-01-26T23:21:26.614Z,23.37
2018-01-26T23:23:54.018Z,25.57
2018-01-26T23:26:21.424Z,23.00
2018-01-26T23:28:48.856Z,23.73
2018-01-26T23:31:16.286Z,23.77
2018-01-26T23:33:43.695Z,24.20
2018-01-26T23:36:11.099Z,23.40
2018-01-26T23:38:38.494Z,24.03
2018-01-26T23:41:05.890Z,22.37
2018-01-26T23:43:33.299Z,23.50
2018-01-26T23:46:00.694Z,22.87
2018-01-26T23:48:28.098Z,24.17
2018-01-26T23:50:55.498Z,23.77
2018-01-26T23:53:22.902Z,25.30
2018-01-26T23:55:50.295Z,26.10
2018-01-26T23:58:17.707Z,26.20
